• Join FlightAware (Why Join?)
  • Login
  • US Flag 
05:01PM EDT


 

Airport Tracker/Info


-or-


 

Live Flight TrackerFlight Track Log ✈ AWI3970 ✈ 16-Jun-2013 ✈ KPHL - KALB

Flight Track Log - Related Links

Times and Time Zones

All times are in EDT time to prevent confusion due to time zone crossing. See the AWI3970 flight status page for this flight to view local times or setup timezone preferences in your user account.

Time Position Orientation Groundspeed Altitude Reporting Facility
EDT Latitude Longitude Course Direction KTS MPH feet Rate Location/Type
11:03PM 39.8667 -75.2833 North 158 182 1,100  Level Philadelphia TRACON
11:04PM 39.8500 -75.3000 218° Southwest 141 162 2,000 1,740 Climbing Philadelphia TRACON
11:05PM 39.8333 -75.3500 247° West 218 251 3,400 1,560 Climbing Philadelphia TRACON
11:06PM 39.8000 -75.4167 237° Southwest 264 304 5,100 2,160 Climbing Philadelphia TRACON
11:07PM 39.7167 -75.4167 180° South 307 353 7,800 2,460 Climbing Philadelphia TRACON
11:08PM 39.8387 -74.6447 37° Northeast  Level FlightAware Approximate
11:08PM 39.7167 -75.3000 90° East 322 371 10,300  Level Philadelphia TRACON
11:09PM 39.9177 -74.5667 North  Level FlightAware Approximate
11:09PM 39.7333 -75.1833 79° East 339 390 12,000  Level Philadelphia TRACON
11:10PM 39.7500 -75.0500 81° East 375 432 12,000  Level Philadelphia TRACON
11:11PM 39.7761 -74.8550 80° East 410 472 12,000 600 Level New York Center
11:12PM 39.8103 -74.7056 73° East 394 453 13,700 1,680 Climbing New York Center
11:13PM 39.8944 -74.6183 38° Northeast 366 421 15,400 1,500 Climbing New York Center
11:14PM 39.9786 -74.5336 38° Northeast 366 421 16,800 1,200 Climbing New York Center
11:15PM 40.0800 -74.4928 17° North 366 421 17,900 1,200 Climbing New York Center
11:16PM 40.1869 -74.4661 11° North 379 436 19,200 1,200 Climbing New York Center
11:17PM 40.2942 -74.4392 11° North 379 436 20,300 1,200 Climbing New York Center
11:18PM 40.4014 -74.4122 11° North 384 442 21,700 1,440 Climbing New York Center
11:20PM 40.5686 -74.3661 12° North 388 447 24,200 1,260 Climbing Boston Center
11:21PM 40.6733 -74.3419 10° North 388 447 25,100 900 Climbing Boston Center
11:22PM 40.7800 -74.3203 North 383 441 26,000 420 Climbing Boston Center
11:23PM 40.8867 -74.2933 11° North 390 449 26,000  Level Boston Center
11:24PM 40.9978 -74.2633 12° North 390 449 26,000  Level Boston Center
11:25PM 41.0981 -74.2386 11° North 385 443 26,000  Level Boston Center
11:26PM 41.2069 -74.2114 11° North 385 443 26,000  Level Boston Center
11:27PM 41.3178 -74.1786 13° North 379 436 26,000  Level Boston Center
11:28PM 41.4267 -74.1511 11° North 379 436 26,000 -600 Level Boston Center
11:29PM 41.5125 -74.1283 11° North 379 436 24,900 -1,560 Descending Boston Center
11:30PM 41.6275 -74.1008 10° North 384 442 22,900 -2,040 Descending Boston Center
11:31PM 41.7258 -74.0756 11° North 371 427 20,900 -2,220 Descending Boston Center
11:32PM 41.8283 -74.0506 10° North 350 403 18,500 -2,460 Descending Boston Center
11:32PM 41.8575 -74.0456 North 340 391 17,700 -2,520 Descending Boston Center
11:33PM 41.9203 -74.0250 14° North 336 387 16,000 -2,340 Descending Boston Center
11:33PM 41.9642 -74.0175 North 337 388 15,100 -1,680 Descending Boston Center
11:34PM 42.0103 -74.0019 14° North 336 387 14,000 -2,220 Descending Boston Center
11:35PM 42.1131 -73.9681 14° North 320 368 11,200 -2,400 Descending Boston Center
11:35PM 42.1339 -73.9658 North 308 354 11,000 -240 Descending Boston Center
11:36PM 42.1842 -73.9475 15° North 297 342 11,000 -540 Level Boston Center
11:36PM 42.2133 -73.9397 11° North 288 331 10,500 -1,920 Descending Boston Center
11:37PM 42.2719 -73.9217 13° North 292 336 9,100 -1,920 Descending Boston Center
11:37PM 42.2908 -73.9164 12° North 287 330 8,600 -1,620 Descending Boston Center
11:38PM 42.3411 -73.9006 13° North 286 329 7,500 -1,620 Descending Boston Center
11:38PM 42.3681 -73.8931 12° North 284 327 7,000 -1,620 Descending Boston Center
11:39PM 42.4183 -73.8744 15° North 265 305 5,900 -1,500 Descending Boston Center
11:40PM 42.4372 -73.8747 359° North 249 287 5,500 -1,440 Descending Boston Center
11:40PM 42.4792 -73.8561 18° North 252 290 4,500 -1,620 Descending Boston Center
11:41PM 42.5064 -73.8483 12° North 234 269 3,900 -1,620 Descending Boston Center
11:41PM 42.5481 -73.8350 13° North 236 272 2,900 -1,440 Descending Boston Center